ACT        NSW        VIC        QLD        SA        WA        TAS        NT        INFO        CALC            by VK5ZD

Past Date/Time: (dd/mm/yyyy hh:mm or blank for current data)    

  Atmospheric Gas Attenuation - ITU Rec 676-11   --------------- dB/100km ---------------
WA Stations Date Time Temp RH % AH g/m3 Dew Point Wind Direction Speed kph Gust kph Barometer mB Rainfall Since 9am 24GHz 47GHz 76GHz 122GHz 134GHz 241GHz
Albany Airport 05/05 22:40 14.4 77 9.52 10.4 9 11 1030.3 0.2 21.5 27.9 44.0 115.5 111.4 384.0
Badgingarra 05/05 22:40 15.1 56 7.22 6.4 19 22 1013.1 0 16.6 23.4 33.8 88.6 79.3 271.8
Barimunya 05/05 22:40 18.2 29 4.51 -0.1 15 17 1013.1 0 10.8 18.9 23.4 60.6 45.9 154.7
Barrow Island 05/05 22:40 21.5 61 11.5 13.7 0 0 1016.4 0 25.3 28.4 47.3 124.6 125.8 435.3
Bedout Island 05/05 22:40 26.4 45 11.2 13.8 30 33 1014.7 0 24.4 26.3 43.3 114.1 114.3 395.8
Bickley 05/05 22:40 13.2 68 7.81 7.4 19 26 1013.1 0 17.9 24.8 36.9 96.8 88.8 304.7
Boolgeeda 05/05 22:40 20.8 22 3.98 -1.4 13 17 1017.9 0 9.6 17.8 21.2 54.7 39.3 131.6
Bridgetown 05/05 22:40 7.4 93 7.4 6.3 0 0 1029.6 0.2 17.3 26.4 38.8 101.4 91.3 312.5
Broome 05/05 22:40 27.5 39 10.32 12.3 15 17 1013 0 22.5 24.7 39.5 103.9 102.2 353.6
Bunbury 05/05 22:40 13.7 76 9 9.5 15 19 1028.6 0 20.4 27.2 42.2 110.6 105.2 362.0
Busselton Airport 05/05 22:40 12.4 76 8.3 8.3 17 19 1028.7 0.2 19.0 26.4 40.0 104.7 97.4 334.7
Cape Leeuwin 05/05 22:40 17 71 10.27 11.7 39 44 1029.1 0 23.0 28.3 45.6 119.8 117.7 406.2
Cape Naturaliste 05/05 22:40 12.7 76 8.46 8.6 32 35 1028.1 0 19.3 26.6 40.5 106.0 99.1 340.8
Carnarvon 05/05 22:40 20.1 30 5.21 2 17 20 1019.3 0 12.2 19.6 25.3 65.7 52.5 178.1
Christmas Creek 05/05 22:40 18.2 25 3.89 -1.9 9 13 1020 0 9.5 18.3 21.6 55.8 39.7 132.7
Christmas Island 05/05 22:40 26.4 91 22.65 24.8 15 19 1011.3 0 48.6 46.4 93.4 247.2 278.1 966.1
Cocos Island 05/05 22:40 27.9 94 25.42 26.8 17 22 1011.2 59.4 54.3 51.2 105.7 280.0 318.6 1107.1
Collie East 05/05 22:40 8.2 91 7.62 6.8 0 0 1013.1 0.2 17.7 25.9 38.6 101.1 92.1 315.6
Coondewanna 05/05 22:40 17.3 30 4.42 -0.4 19 20 1013.1 0 10.6 18.9 23.3 60.5 45.4 153.0
Cunderdin Airport 05/05 22:40 10.1 81 7.66 7 9 9 1027.4 0 17.7 26.0 38.4 100.5 91.5 313.6
Curtin 05/05 22:40 24.2 46 10.12 11.9 15 15 1011.6 0 22.3 25.2 40.4 106.1 104.0 359.5
Dalwallinu 05/05 22:40 12.3 63 6.84 5.5 7 9 1025.6 0 15.9 24.0 34.1 89.0 78.2 267.4
Donnybrook 05/05 09:00 10 100 9.4 10 17 1013.1 0 21.5 28.4 45.2 118.8 114.7 394.9
Dwellingup 05/05 22:40 11.7 77 8.05 7.8 22 28 1028.3 0 18.5 26.2 39.3 102.8 94.9 325.8
Eliwana Airport 05/05 22:40 21.2 21 3.89 -1.8 7 7 1013.1 0 9.4 17.5 20.7 53.4 38.0 127.2
Esperance 05/05 22:40 14.5 95 11.82 13.7 7 7 1029.3 0.4 26.4 31.8 53.9 141.8 143.9 497.4
Esperance Airport 05/05 22:40 13.5 96 11.23 12.9 0 0 1029.5 1.6 25.2 31.1 51.9 136.6 137.1 473.5
Eucla 05/05 22:40 14.6 94 11.76 13.6 7 9 1026.8 1 26.3 31.6 53.4 140.6 142.5 492.7
Fitzroy Crossing 05/05 22:40 26.2 63 15.51 18.6 1012.4 0 33.5 33.2 60.4 159.6 170.5 591.8
Forrest 05/05 22:40 14 82 9.89 11 0 0 1027 0 22.3 28.5 45.7 119.9 116.8 402.8
Fortescue Dave Forrest 05/05 22:39 17.8 29 4.4 -0.5 19 24 1019.3 0 10.6 19.0 23.3 60.4 45.2 152.2
Garden Island 05/05 22:40 15.6 77 10.24 11.6 15 17 1027 0 23.0 28.6 46.2 121.3 119.2 411.4
Geraldton Airport 05/05 22:40 13.9 78 9.35 10.1 13 13 1023.2 0 21.2 27.5 43.3 113.6 109.2 376.1
Gerangamete (Cfa) 06/05 00:30 12.3 84 9.12 9.7 6 7 1013.1 0 20.8 27.2 42.7 112.2 107.4 369.8
Giles* 06/05 00:00 14.3 38 4.67 0.2 15 19 1021.4 0 11.2 20.2 25.3 65.7 50.3 169.7
Gingin Airport 05/05 22:40 11 87 8.71 8.9 9 9 1026.5 0 19.9 27.4 42.3 110.9 104.7 359.9
Golden Grove 05/05 22:40 13.8 49 5.84 3.3 9 11 1013.1 0 13.7 21.6 29.3 76.4 63.8 217.1
Gooseberry Hill 05/05 22:40 15.6 57 7.58 7.3 20 24 1013.1 0 17.3 23.8 35.0 91.6 83.2 285.6
Gudai-Darri Mine 05/05 22:40 20.9 25 4.55 0.4 22 32 1013.1 0 10.8 18.4 22.8 59.0 44.8 151.2
Halls Creek 06/05 00:10 21.6 85 16.12 19 6 7 1014.8 0 35.1 36.3 67.1 177.2 190.5 661.0
Hopetoun North 05/05 22:40 14.6 85 10.64 12.2 9 9 1029.2 0 23.9 29.7 48.6 127.7 126.6 437.1
Iron Bridge Mine 05/05 22:40 18.4 25 3.93 -1.7 11 13 1013.1 0 9.6 18.1 21.5 55.6 39.7 133.0
Jacup 05/05 22:40 8.8 93 8.1 7.7 7 9 1029.5 0 18.7 27.2 41.0 107.4 99.3 340.9
Jandakot 05/05 22:40 10.2 86 8.19 8 7 9 1026.9 0 18.9 26.8 40.6 106.2 98.6 338.4
Kalgoorlie-Boulder 05/05 22:40 12.1 79 8.47 8.6 17 19 1027.4 0 19.4 26.7 40.8 106.8 100.0 343.7
Kalumburu 06/05 00:10 23 94 19.32 22 0 0 1012.8 0 41.9 41.6 80.8 213.8 235.9 819.3
Karijini North 05/05 22:40 21.2 23 4.26 -0.7 11 15 1018 0 10.2 18.1 22.0 56.8 41.9 140.9
Karnet 05/05 15:00 20.7 49 8.82 9.6 2 1013.1 0 19.7 24.3 37.3 97.9 92.8 319.6
Karratha 05/05 22:40 19.3 55 9.12 10 13 13 1016.5 0 20.4 25.3 39.3 103.0 98.4 339.2
Katanning Rs 05/05 22:40 9 91 8.03 7.7 9 13 1029.7 0.2 18.6 27.0 40.6 106.4 98.1 336.6
Koolan Island / Koolan Central 05/05 22:39 29.5 46 13.58 16.9 7 7 1013.1 0 29.2 28.9 50.4 133.0 138.6 480.9
Kununurra Airport 06/05 00:10 27.3 58 15.18 18.3 15 17 1012.9 0 32.7 32.3 58.2 153.8 163.6 568.1
Lake Grace 05/05 22:40 10.9 93 9.25 9.8 9 11 1029.1 0 21.1 28.5 44.8 117.5 112.7 387.8
Lancelin (Defence) 05/05 22:40 14.1 85 10.32 11.6 6 7 1025.3 0 23.2 29.1 47.3 124.4 122.5 422.8
Laverton 05/05 22:40 12.9 67 7.55 6.9 15 17 1026 0 17.4 24.9 36.6 95.7 86.7 297.3
Learmonth 05/05 22:40 19.3 78 12.94 15.4 19 20 1017.6 0 28.5 31.6 54.8 144.6 149.5 517.8
Legendre Island 05/05 22:40 24.2 41 9.02 10.4 9 11 1016.2 0 20.0 23.8 36.6 96.0 91.3 315.0
Leinster 05/05 22:40 14.1 56 6.8 5.5 15 17 1024.4 0 15.7 23.4 33.1 86.5 75.9 259.4
Leonora Airport 05/05 22:40 13.6 65 7.65 7.2 15 17 1025.9 0 17.6 24.9 36.7 95.9 87.2 299.2
Lombadina 05/05 22:40 24.8 79 17.98 20.9 6 7 1013.1 0 38.8 38.2 72.6 192.0 209.8 728.5
Mandora 05/05 22:40 19.9 26 4.47 -0.1 13 15 1014.3 0 10.6 18.5 22.8 59.1 44.6 150.3
Mandurah 05/05 22:40 15.4 65 8.54 9 11 15 1027.1 0 19.4 25.9 39.4 103.1 96.7 332.7
Manjimup 05/05 22:40 10.1 88 8.32 8.2 11 15 1029.8 0.2 19.2 27.2 41.3 108.1 100.7 346.0
Marble Bar 05/05 22:40 21.2 23 4.26 -0.8 13 15 1016.8 0 10.2 18.1 21.9 56.7 41.9 140.8
Mardie 05/05 22:40 20.4 59 10.44 12.3 6 6 1016.6 0 23.2 27.0 43.8 115.1 113.7 392.9
Meekatharra 05/05 22:40 16.4 43 6 3.8 20 22 1022.6 0 14.0 21.6 29.3 76.3 64.1 218.5
Millendon (Swan Valley) 05/05 22:40 10.5 89 8.63 8.7 0 0 1026.4 0 19.8 27.4 42.2 110.7 104.2 358.3
Morawa Airport 05/05 22:40 14.4 48 5.93 3.5 7 7 1024.4 0 13.9 22.0 29.8 77.6 65.0 221.4
Mount Keith 05/05 22:40 14.1 56 6.8 5.5 17 19 1013.1 0 15.7 23.0 32.7 85.5 75.1 256.9
Mount Magnet Airport 05/05 22:40 14.9 50 6.37 4.6 15 17 1024 0 14.8 22.5 31.2 81.4 69.8 238.4
Munglinup West 05/05 22:40 12.5 95 10.45 11.7 6 6 1029.5 0.2 23.6 30.1 49.1 129.0 127.4 439.6
Newdegate 05/05 22:40 11.1 90 9.07 9.6 19 24 1029.1 0 20.7 28.1 43.9 115.2 109.8 377.9
Newman Airport 05/05 22:40 16.3 34 4.72 0.4 13 17 1019.7 0 11.3 19.7 24.8 64.4 49.6 167.3
Norseman Airport 05/05 22:40 8.1 90 7.49 6.6 0 2 1028.5 0 17.5 26.3 38.7 101.3 91.6 313.7
North Island 05/05 22:40 21.3 75 13.98 16.7 30 35 1022.5 0 30.6 32.8 58.2 153.4 160.8 557.5
Onslow Airport 05/05 22:40 21.1 70 12.9 15.4 13 15 1017.5 0 28.3 30.8 53.4 140.8 145.5 503.9
Paraburdoo 05/05 22:40 20.9 26 4.73 0.7 17 20 1018.2 0 11.2 18.8 23.5 60.9 46.9 158.5
Pearce 05/05 22:40 12.4 81 8.85 9.2 2 6 1026 0 20.2 27.2 42.1 110.5 104.7 360.1
Perth 05/05 22:40 12.3 90 9.77 10.7 0 0 1026.7 0 22.2 28.8 46.1 121.1 117.7 405.7
Perth Airport 05/05 22:40 9.7 88 8.11 7.8 7 9 1026.7 0 18.7 26.8 40.5 106.0 98.1 336.7
Port Hedland 05/05 22:40 17.7 29 4.38 -0.5 15 15 1015.8 0 10.5 18.9 23.2 60.1 44.9 151.1
Portable Btsa (Dfes) 05/05 22:30 18 32 4.91 1.4 0 0 1013.1 0 11.6 19.4 24.7 64.2 50.3 170.2
Portable Btsb (Dfes) 05/05 22:30 13.7 60 7.11 6.2 7 7 1013.1 0 16.4 23.6 34.0 89.0 79.3 271.7
Portable Btsd (Dfes) 05/05 22:30 11.1 82 8.26 8.1 13 15 1013.1 0 19.0 26.1 39.8 104.3 97.3 334.1
Portable Btsf (Dfes) 05/05 22:00 15.9 48 6.5 4.9 20 24 1013.1 0 15.0 22.1 30.9 80.7 69.9 238.7
Portable Btsh (Dfes) 05/05 22:30 13.6 83 9.77 10.8 6 7 1013.1 0.2 22.1 27.9 44.7 117.5 114.5 394.7
Portable Btsj (Dfes) 05/05 22:30 12.3 77 8.36 8.5 7 9 1013.1 0 19.1 25.9 39.6 103.8 97.1 333.7
Portable Btsk (Dfes) 05/05 22:30 20 55 9.5 10.9 2 2 1013.1 0 21.2 25.5 40.2 105.6 102.0 351.9
Portable Btsl (Dfes) 05/05 22:30 5.7 87 6.2 3.7 4 6 1013.1 0 14.8 24.3 33.8 88.5 75.5 257.1
Portable Btsm (Dfes) 05/05 22:30 16.3 39 5.41 2.4 4 6 1013.1 0 12.7 20.5 26.9 70.1 56.9 193.3
Portable Btsn (Dfes) 05/05 22:30 15.1 50 6.45 4.7 9 11 1013.1 0 15.0 22.2 31.0 81.0 70.0 239.0
Portable Btso (Dfes) 05/05 22:30 11.4 77 7.9 7.6 6 7 1013.1 0 18.2 25.4 38.1 100.0 92.1 316.0
Red Rocks Point 05/05 22:40 16.5 76 10.67 12.3 13 15 1027 0.6 23.8 29.0 47.5 124.7 123.7 427.3
Rocky Gully South 05/05 22:40 12.5 86 9.46 10.2 7 7 1013.1 0 21.5 27.7 44.0 115.7 111.8 385.2
Roebourne Airport 05/05 22:40 18.5 26 4.11 -1.3 13 13 1016.6 0 9.9 18.4 22.1 57.3 41.7 139.8
Rottnest Island 05/05 22:40 18.2 70 10.88 12.6 28 32 1026.1 0 24.2 28.8 47.3 124.3 123.8 427.7
Salmon Gums Rs 05/05 22:40 9.9 100 9.34 9.9 6 6 1013.1 0 21.4 28.3 45.0 118.3 114.0 392.4
Shannon 05/05 22:40 12.4 82 8.96 9.4 4 6 1013.1 0 20.4 26.9 42.0 110.3 105.1 361.6
Shark Bay Airport 05/05 22:40 18.3 65 10.16 11.6 19 20 1020.1 0 22.7 27.3 44.0 115.6 113.4 391.6
Solomon Airport 05/05 22:40 18.2 24 3.73 -2.3 7 9 1019 0 9.2 18.0 21.1 54.4 38.0 126.7
Southern Cross Airport 05/05 22:40 12 77 8.21 8.1 13 15 1027.3 0.2 18.8 26.3 39.7 104.1 96.6 331.8
Swanbourne 05/05 22:40 13.4 95 11.04 12.6 11 13 1013.1 0 24.9 30.2 50.3 132.5 132.8 458.5
Telfer 05/05 22:40 20.7 27 4.86 1.1 32 37 1016.4 0 11.4 18.9 23.9 62.0 48.3 163.4
Thevenard Island 05/05 22:30 21 65 11.91 14.2 6 7 1017.1 0 26.2 29.2 49.3 130.0 132.1 457.4
Troughton Island 06/05 00:10 28.3 82 22.67 24.9 13 15 1012.8 0 48.4 45.4 91.2 241.5 271.6 943.8
Truscott 06/05 00:10 24.3 96 21.24 23.6 0 0 1012.5 0 45.8 44.8 88.9 235.3 262.7 912.5
Walpole North 05/05 22:40 13.7 77 9.12 9.7 7 7 1029.9 0 20.7 27.4 42.7 112.0 106.9 368.1
Wandering 05/05 22:40 10.5 78 7.57 6.8 7 9 1013.1 0 17.5 25.2 37.2 97.6 88.7 304.2
Warburton 06/05 00:10 15.1 45 5.81 3.3 19 24 1022.6 0.6 13.6 21.6 29.1 75.7 62.9 214.2
West Angelas 05/05 22:40 17.3 32 4.71 0.6 17 19 1020.4 1.8 11.2 19.5 24.5 63.6 48.9 165.0
West Musgrave Airport 05/05 22:40 15.9 41 5.55 2.7 17 19 1013.1 0 13.0 20.8 27.5 71.7 58.8 199.9
Wiluna Airport 05/05 22:40 13.9 56 6.71 5.3 15 17 1023.3 0 15.6 23.3 32.8 85.7 74.9 255.9
Witchcliffe West 05/05 22:40 11.1 98 9.87 10.8 11 13 1029.4 0 22.4 29.5 47.4 124.5 121.3 418.0
Wyndham Airport 06/05 00:10 26.5 78 19.53 22.3 7 7 1012.5 0 41.9 40.3 78.1 206.7 228.3 793.1
Yampi Sound (Defence) 05/05 22:40 23.2 82 17.05 19.9 0 0 1015.7 0 37.0 37.3 70.0 184.9 200.5 695.9

Last Refresh: 06-May-2026 00:21:17

Bureau of Meteorology